Time;durP1;ratioP1;P1;durP2;ratioP2;P2;SDS_P1;SDS_P2;PMS_P1;PMS_P2;Temp;Humidity;BMP_temperature;BMP_pressure;BME280_temperature;BME280_humidity;BME280_pressure;Samples;Min_cycle;Max_cycle;Signal;HPM_P1;HPM_P2
2023/06/13 00:01:49;;;;;;;;;26.67;25.33;;;;;23.50;69.02;100841.28;5085593;27;45368;-53
2023/06/13 00:04:21;;;;;;;;;22.33;19.00;;;;;23.48;68.54;100836.03;5088778;27;46168;-53
2023/06/13 00:06:49;;;;;;;;;26.67;25.00;;;;;23.44;68.85;100837.31;5082242;27;45484;-51
2023/06/13 00:09:17;;;;;;;;;28.00;26.33;;;;;23.44;69.35;100834.63;5078799;27;45424;-51
2023/06/13 00:11:43;;;;;;;;;28.33;25.67;;;;;23.42;69.13;100836.66;5084436;27;46291;-52
2023/06/13 00:14:10;;;;;;;;;20.67;19.33;;;;;23.40;69.13;100827.81;5099147;27;46400;-50
2023/06/13 00:16:38;;;;;;;;;24.00;23.67;;;;;23.38;68.88;100827.13;5093830;27;45473;-50
2023/06/13 00:19:04;;;;;;;;;21.33;19.67;;;;;23.36;69.29;100826.44;5081701;27;45482;-50
2023/06/13 00:21:30;;;;;;;;;29.67;26.67;;;;;23.32;68.99;100833.19;5081571;27;45393;-49
2023/06/13 00:23:55;;;;;;;;;24.33;24.33;;;;;23.28;69.38;100827.22;5083166;27;46983;-51
2023/06/13 00:26:20;;;;;;;;;25.67;24.67;;;;;23.24;69.23;100825.84;5092573;27;71630;-50
2023/06/13 00:28:46;;;;;;;;;26.33;24.33;;;;;23.20;69.28;100816.31;5089856;27;45393;-50
2023/06/13 00:31:11;;;;;;;;;26.67;23.00;;;;;23.18;69.48;100830.06;5094018;27;66202;-50
2023/06/13 00:33:37;;;;;;;;;30.00;27.67;;;;;23.15;69.39;100818.66;5088134;27;46034;-52
2023/06/13 00:36:03;;;;;;;;;30.67;26.67;;;;;23.13;69.45;100818.78;5088065;27;68283;-51
2023/06/13 00:38:29;;;;;;;;;26.00;25.67;;;;;23.20;68.44;100824.47;5087780;27;45502;-50
2023/06/13 00:40:54;;;;;;;;;32.00;29.00;;;;;23.03;69.66;100813.47;5084871;27;45481;-51
2023/06/13 00:43:19;;;;;;;;;33.00;28.67;;;;;23.02;69.67;100819.88;5082995;27;45809;-51
2023/06/13 00:45:46;;;;;;;;;26.67;26.67;;;;;22.99;69.88;100813.94;5085802;27;50346;-52
2023/06/13 00:48:12;;;;;;;;;25.33;23.00;;;;;22.98;70.04;100814.94;5082457;27;45284;-50
2023/06/13 00:50:44;;;;;;;;;29.67;27.67;;;;;22.94;70.33;100800.84;5080899;27;67515;-52
2023/06/13 00:53:17;;;;;;;;;32.00;26.00;;;;;22.93;69.93;100809.97;5090188;27;48251;-52
2023/06/13 00:55:43;;;;;;;;;34.00;29.67;;;;;22.89;70.11;100809.47;5088683;27;45571;-49
2023/06/13 00:58:10;;;;;;;;;27.33;27.33;;;;;23.02;69.52;100810.91;5081263;27;45275;-51
2023/06/13 01:00:39;;;;;;;;;30.00;25.67;;;;;23.03;69.36;100804.47;5087521;27;45482;-51
2023/06/13 01:03:10;;;;;;;;;29.33;23.00;;;;;23.01;69.38;100798.34;5091272;27;45495;-49
2023/06/13 01:05:39;;;;;;;;;29.33;28.33;;;;;22.83;70.04;100798.38;5101249;27;45433;-51
2023/06/13 01:08:08;;;;;;;;;29.33;25.67;;;;;22.78;70.35;100810.53;5086219;27;45707;-51
2023/06/13 01:10:34;;;;;;;;;29.67;27.67;;;;;22.75;70.10;100804.59;5092651;27;45315;-51
2023/06/13 01:13:24;;;;;;;;;32.33;26.33;;;;;22.71;70.70;100806.78;5086543;27;73118;-50
2023/06/13 01:16:00;;;;;;;;;31.00;29.00;;;;;22.69;70.63;100805.22;5107215;27;45391;-52
2023/06/13 01:18:30;;;;;;;;;30.67;28.67;;;;;22.65;70.64;100804.69;5088813;27;45849;-51
2023/06/13 01:21:00;;;;;;;;;27.00;26.00;;;;;22.62;70.26;100797.72;5082368;27;45470;-50
2023/06/13 01:23:25;;;;;;;;;29.33;28.33;;;;;22.59;70.71;100800.75;5087989;27;47145;-50
2023/06/13 01:25:59;;;;;;;;;23.33;23.33;;;;;22.58;70.59;100798.16;5083323;27;45541;-51
2023/06/13 01:28:26;;;;;;;;;31.00;29.00;;;;;22.56;70.91;100789.34;5085782;27;45580;-50
2023/06/13 01:30:53;;;;;;;;;26.00;26.00;;;;;22.54;70.96;100789.53;5084380;27;45374;-51
2023/06/13 01:33:19;;;;;;;;;21.67;21.00;;;;;22.54;70.95;100792.22;5080915;27;46344;-52
2023/06/13 01:35:46;;;;;;;;;27.00;26.00;;;;;22.52;71.13;100788.81;5085615;27;45516;-50
2023/06/13 01:38:12;;;;;;;;;32.33;29.67;;;;;22.53;71.11;100789.66;5083972;27;45416;-50
2023/06/13 01:40:37;;;;;;;;;27.33;25.67;;;;;22.52;70.98;100788.81;5086292;27;66067;-49
2023/06/13 01:43:02;;;;;;;;;25.33;22.00;;;;;22.51;71.11;100784.38;5087068;27;45930;-52
2023/06/13 01:45:28;;;;;;;;;27.00;25.67;;;;;22.52;71.11;100786.09;5082440;27;53191;-50
2023/06/13 01:48:09;;;;;;;;;29.33;23.00;;;;;22.55;70.75;100790.34;5093724;27;59503;-50
2023/06/13 01:50:48;;;;;;;;;29.33;27.00;;;;;22.55;70.92;100791.19;5088220;27;45631;-50
2023/06/13 01:53:28;;;;;;;;;33.00;31.00;;;;;22.54;70.47;100778.69;5095364;27;46611;-53
2023/06/13 01:56:01;;;;;;;;;29.67;23.67;;;;;22.53;70.74;100781.53;5102587;27;45435;-54
2023/06/13 01:58:34;;;;;;;;;28.33;26.33;;;;;22.51;70.72;100780.84;5084675;27;46956;-53
2023/06/13 02:01:03;;;;;;;;;30.00;27.33;;;;;22.48;70.84;100779.28;5088813;27;45465;-50
2023/06/13 02:03:28;;;;;;;;;25.33;25.33;;;;;22.43;71.13;100787.03;5083049;27;46330;-52
2023/06/13 02:05:53;;;;;;;;;28.00;26.67;;;;;22.39;71.23;100786.47;5079463;27;45377;-50
2023/06/13 02:08:19;;;;;;;;;32.67;30.33;;;;;22.36;70.89;100786.81;5085288;27;67392;-50
2023/06/13 02:10:45;;;;;;;;;30.67;30.00;;;;;22.31;71.02;100786.38;5086525;27;68724;-49
2023/06/13 02:13:10;;;;;;;;;27.67;26.67;;;;;22.27;70.89;100787.69;5092281;27;46224;-50
2023/06/13 02:15:35;;;;;;;;;27.00;25.33;;;;;22.23;70.62;100773.59;5103661;27;66935;-51
2023/06/13 02:18:02;;;;;;;;;31.33;29.67;;;;;22.22;70.95;100781.88;5083224;27;45351;-52
2023/06/13 02:20:27;;;;;;;;;28.00;28.00;;;;;22.20;70.74;100773.06;5083396;27;45334;-51
2023/06/13 02:22:53;;;;;;;;;29.00;27.33;;;;;22.19;71.15;100777.63;5082259;27;45465;-50
2023/06/13 02:25:20;;;;;;;;;31.67;29.00;;;;;22.18;71.03;100777.78;5082971;27;72374;-50
2023/06/13 02:27:45;;;;;;;;;31.00;29.33;;;;;22.12;70.90;100771.97;5092734;27;45424;-51
2023/06/13 02:30:11;;;;;;;;;29.33;28.67;;;;;22.11;70.57;100777.53;5082333;27;45506;-52
2023/06/13 02:32:39;;;;;;;;;30.67;28.33;;;;;22.07;71.11;100768.88;5084865;27;46588;-50
2023/06/13 02:35:07;;;;;;;;;29.67;29.67;;;;;22.04;71.27;100769.16;5085255;27;45653;-50
2023/06/13 02:37:32;;;;;;;;;27.00;25.33;;;;;22.03;71.06;100770.19;5087911;27;45594;-49
2023/06/13 02:39:58;;;;;;;;;33.67;29.00;;;;;22.00;71.16;100764.22;5091139;27;68660;-50
2023/06/13 02:42:23;;;;;;;;;33.00;28.67;;;;;21.97;71.38;100760.78;5083530;27;55231;-52
2023/06/13 02:44:48;;;;;;;;;38.00;32.00;;;;;21.96;71.39;100760.97;5086980;27;45501;-53
2023/06/13 02:47:14;;;;;;;;;28.00;28.00;;;;;21.94;71.46;100754.81;5087841;27;63774;-53
2023/06/13 02:49:39;;;;;;;;;30.67;26.67;;;;;21.92;71.45;100759.56;5094845;27;67902;-52
2023/06/13 02:52:05;;;;;;;;;32.67;29.00;;;;;21.89;71.72;100758.00;5082086;27;46551;-53
2023/06/13 02:54:30;;;;;;;;;26.67;23.00;;;;;21.87;70.98;100759.16;5083377;27;45315;-52
2023/06/13 02:56:55;;;;;;;;;28.33;26.67;;;;;21.84;71.50;100764.84;5080418;27;65656;-51
2023/06/13 02:59:21;;;;;;;;;30.67;29.00;;;;;21.80;71.55;100762.47;5090862;27;45460;-53
2023/06/13 03:01:46;;;;;;;;;33.00;27.67;;;;;21.79;71.62;100758.06;5083452;27;72961;-50
2023/06/13 03:04:11;;;;;;;;;29.33;29.00;;;;;21.77;71.41;100762.78;5083870;27;70530;-52
2023/06/13 03:06:41;;;;;;;;;29.67;28.00;;;;;21.76;71.81;100763.78;5091095;27;45489;-52
2023/06/13 03:09:07;;;;;;;;;30.67;26.00;;;;;21.74;71.36;100762.22;5085170;27;45961;-53
2023/06/13 03:11:32;;;;;;;;;34.00;28.67;;;;;21.74;71.45;100765.78;5105080;27;46964;-51
2023/06/13 03:13:58;;;;;;;;;30.67;27.33;;;;;21.73;71.63;100774.03;5085629;27;65508;-49
2023/06/13 03:16:24;;;;;;;;;28.00;27.33;;;;;21.70;71.67;100775.19;5088946;27;51771;-50
2023/06/13 03:18:50;;;;;;;;;27.33;27.33;;;;;;;;5083852;27;45578;-51
2023/06/13 03:21:15;;;;;;;;;30.00;29.67;;;;;21.63;71.91;100763.28;5085234;27;45669;-51
2023/06/13 03:23:40;;;;;;;;;33.00;29.67;;;;;21.60;71.82;100767.13;5090050;27;45802;-52
2023/06/13 03:26:06;;;;;;;;;34.67;30.33;;;;;21.59;71.95;100773.53;5081807;27;64608;-52
2023/06/13 03:28:31;;;;;;;;;29.67;26.00;;;;;21.55;71.75;100761.31;5088028;27;66685;-52
2023/06/13 03:30:57;;;;;;;;;33.00;29.00;;;;;21.53;72.15;100766.00;5078597;27;77615;-51
2023/06/13 03:33:22;;;;;;;;;27.33;27.33;;;;;21.50;71.77;100763.59;5080523;27;45367;-51
2023/06/13 03:35:48;;;;;;;;;34.67;31.67;;;;;21.49;71.71;100759.19;5083825;27;45354;-51
2023/06/13 03:38:13;;;;;;;;;33.33;30.33;;;;;21.47;71.99;100767.44;5082258;27;68496;-50
2023/06/13 03:40:38;;;;;;;;;38.33;32.00;;;;;21.44;72.17;100772.28;5085769;27;71261;-53
2023/06/13 03:43:04;;;;;;;;;34.33;30.67;;;;;21.42;71.87;100763.47;5091923;27;46568;-49
2023/06/13 03:45:29;;;;;;;;;34.33;31.00;;;;;21.40;72.20;100762.78;5090479;27;67587;-49
2023/06/13 03:47:54;;;;;;;;;34.67;31.00;;;;;21.39;72.78;100766.47;5083875;27;66159;-50
2023/06/13 03:50:20;;;;;;;;;37.00;31.00;;;;;21.36;72.22;100772.19;5081739;27;45594;-50
2023/06/13 03:52:45;;;;;;;;;31.33;30.00;;;;;21.36;72.19;100769.50;5093699;27;45428;-51
2023/06/13 03:55:11;;;;;;;;;32.33;30.67;;;;;21.35;72.22;100767.78;5080213;27;63599;-52
2023/06/13 03:57:36;;;;;;;;;28.67;28.00;;;;;21.36;72.33;100769.50;5082859;27;45474;-52
2023/06/13 04:00:04;;;;;;;;;27.33;27.00;;;;;21.37;72.48;100768.47;5084265;27;60051;-49
2023/06/13 04:02:30;;;;;;;;;31.33;26.67;;;;;21.36;72.42;100766.78;5085278;27;45430;-49
2023/06/13 04:04:56;;;;;;;;;31.00;30.33;;;;;21.36;72.04;100773.03;5086120;27;55422;-52
2023/06/13 04:07:22;;;;;;;;;31.00;29.00;;;;;21.37;71.93;100776.56;5083508;27;45453;-50
2023/06/13 04:09:47;;;;;;;;;32.67;30.33;;;;;21.36;72.41;100775.75;5086133;27;46406;-50
2023/06/13 04:12:13;;;;;;;;;31.67;30.33;;;;;21.36;71.96;100781.16;5081642;27;45302;-49
2023/06/13 04:14:38;;;;;;;;;32.67;28.00;;;;;21.35;72.50;100776.72;5101735;27;45498;-51
2023/06/13 04:17:04;;;;;;;;;30.33;29.33;;;;;21.35;72.19;100781.31;5082786;27;45403;-50
2023/06/13 04:19:31;;;;;;;;;30.67;30.00;;;;;21.35;71.74;100778.59;5080496;27;46075;-50
2023/06/13 04:21:59;;;;;;;;;31.33;30.00;;;;;21.38;71.95;100781.00;5085899;27;45513;-52
2023/06/13 04:24:25;;;;;;;;;36.33;30.33;;;;;21.39;72.05;100774.59;5087709;27;45527;-50
2023/06/13 04:26:50;;;;;;;;;30.67;30.33;;;;;21.42;72.45;100782.41;5082833;27;46867;-52
2023/06/13 04:29:17;;;;;;;;;31.00;27.67;;;;;21.43;71.79;100779.56;5079279;27;46170;-49
2023/06/13 04:31:43;;;;;;;;;28.67;28.33;;;;;21.45;71.83;100780.25;5080790;27;45610;-52
2023/06/13 04:34:10;;;;;;;;;29.00;27.33;;;;;21.46;72.00;100781.13;5081050;27;45798;-49
2023/06/13 04:36:38;;;;;;;;;37.67;31.00;;;;;21.47;72.14;100786.38;5087583;27;45366;-51
2023/06/13 04:39:06;;;;;;;;;33.00;30.00;;;;;21.48;71.91;100779.97;5084425;27;46338;-50
2023/06/13 04:41:38;;;;;;;;;35.33;30.33;;;;;21.52;71.34;100783.22;5080220;27;45804;-53
2023/06/13 04:44:10;;;;;;;;;30.33;29.33;;;;;21.54;71.36;100785.81;5081547;27;45429;-52
2023/06/13 04:46:38;;;;;;;;;30.00;30.00;;;;;21.56;72.03;100789.22;5084559;27;45465;-53
2023/06/13 04:49:06;;;;;;;;;32.00;30.00;;;;;21.61;71.47;100789.63;5077634;27;45443;-53
2023/06/13 04:51:33;;;;;;;;;33.00;31.00;;;;;21.63;71.29;100785.78;5062747;27;45547;-51
2023/06/13 04:54:00;;;;;;;;;37.00;30.33;;;;;;;;5085496;27;45459;-50
2023/06/13 04:56:28;;;;;;;;;32.67;29.67;;;;;21.72;71.57;100788.56;5082145;27;45507;-52
2023/06/13 04:58:55;;;;;;;;;30.00;26.33;;;;;21.76;71.40;100790.00;5081463;27;70016;-51
2023/06/13 05:01:21;;;;;;;;;33.00;30.33;;;;;21.80;71.27;100794.13;5078082;27;45393;-53
2023/06/13 05:03:51;;;;;;;;;34.33;30.67;;;;;21.83;70.92;100795.66;5089142;27;45408;-53
2023/06/13 05:06:16;;;;;;;;;35.67;29.67;;;;;21.89;70.68;100790.50;5080675;27;45563;-52
2023/06/13 05:08:42;;;;;;;;;32.00;28.33;;;;;21.92;70.89;100795.59;5082435;27;46145;-52
2023/06/13 05:11:07;;;;;;;;;34.00;31.33;;;;;21.97;70.28;100790.59;5085135;27;45416;-53
2023/06/13 05:13:32;;;;;;;;;32.33;29.00;;;;;22.01;70.26;100796.56;5080823;27;45464;-52
2023/06/13 05:15:58;;;;;;;;;31.67;30.67;;;;;22.06;70.12;100799.66;5095980;27;63950;-49
2023/06/13 05:18:24;;;;;;;;;28.50;25.50;;;;;22.12;69.89;100799.06;5079801;27;46884;-49
2023/06/13 05:20:50;;;;;;;;;34.00;31.33;;;;;22.16;69.76;100793.31;5083806;27;45318;-50
2023/06/13 05:23:15;;;;;;;;;32.67;31.33;;;;;22.22;69.64;100793.56;5089245;27;45489;-50
2023/06/13 05:25:41;;;;;;;;;30.33;26.67;;;;;22.29;69.55;100788.38;5088433;27;67237;-52
2023/06/13 05:28:06;;;;;;;;;31.00;29.67;;;;;22.35;69.00;100797.78;5085071;27;60080;-52
2023/06/13 05:30:32;;;;;;;;;28.67;27.33;;;;;22.41;69.28;100800.75;5088176;27;45275;-53
2023/06/13 05:32:58;;;;;;;;;32.33;30.67;;;;;22.46;69.03;100802.97;5093236;27;45519;-50
2023/06/13 05:35:23;;;;;;;;;29.67;25.67;;;;;22.51;68.37;100797.94;5087348;27;45544;-50
2023/06/13 05:37:50;;;;;;;;;31.00;29.33;;;;;22.56;68.32;100794.78;5092556;27;45499;-51
2023/06/13 05:40:15;;;;;;;;;27.67;26.67;;;;;22.61;68.14;100787.88;5084947;27;46044;-51
2023/06/13 05:42:40;;;;;;;;;34.33;30.33;;;;;22.70;67.79;100788.81;5084942;27;65378;-52
2023/06/13 05:45:07;;;;;;;;;29.33;28.33;;;;;22.86;67.59;100784.53;5087116;27;46031;-53
2023/06/13 05:47:33;;;;;;;;;35.00;30.33;;;;;23.06;67.20;100783.31;5095066;27;45445;-53
2023/06/13 05:49:59;;;;;;;;;28.00;27.67;;;;;23.17;66.65;100790.38;5096008;27;45421;-52
2023/06/13 05:52:25;;;;;;;;;27.67;26.00;;;;;23.22;66.38;100788.03;5080194;27;45341;-53
2023/06/13 05:54:50;;;;;;;;;32.67;29.00;;;;;23.26;66.49;100783.97;5097992;27;45566;-52
2023/06/13 05:57:16;;;;;;;;;32.33;30.00;;;;;23.33;66.09;100791.50;5086985;27;45401;-51
2023/06/13 05:59:41;;;;;;;;;29.67;29.67;;;;;23.39;66.11;100788.97;5082976;27;45388;-52
2023/06/13 06:02:09;;;;;;;;;36.33;31.00;;;;;23.46;65.71;100798.16;5091487;27;45882;-49
2023/06/13 06:04:35;;;;;;;;;34.33;31.00;;;;;23.52;64.90;100793.97;5082177;27;45387;-50
2023/06/13 06:07:00;;;;;;;;;34.33;30.33;;;;;23.58;65.20;100804.19;5080512;27;46593;-51
2023/06/13 06:09:25;;;;;;;;;36.67;32.00;;;;;23.66;65.28;100803.34;5091773;27;69095;-53
2023/06/13 06:11:51;;;;;;;;;32.00;27.67;;;;;23.70;64.36;100801.16;5079391;27;54018;-51
2023/06/13 06:14:17;;;;;;;;;34.00;32.00;;;;;23.72;63.83;100800.00;5086994;27;45543;-52
2023/06/13 06:16:42;;;;;;;;;30.67;29.33;;;;;23.76;64.33;100792.38;5086168;27;46234;-51
2023/06/13 06:19:08;;;;;;;;;36.00;30.33;;;;;23.87;64.37;100792.09;5087974;27;69311;-50
2023/06/13 06:21:33;;;;;;;;;31.00;30.00;;;;;24.01;63.75;100790.63;5082867;27;45357;-51
2023/06/13 06:23:58;;;;;;;;;38.00;31.00;;;;;24.14;63.35;100786.59;5095413;27;45345;-52
2023/06/13 06:26:24;;;;;;;;;38.00;33.00;;;;;24.28;62.71;100794.94;5091908;27;65862;-51
2023/06/13 06:28:50;;;;;;;;;34.33;31.00;;;;;24.42;62.56;100790.72;5080359;27;45952;-54
2023/06/13 06:31:16;;;;;;;;;32.33;30.00;;;;;24.62;62.26;100784.97;5082989;27;45903;-49
2023/06/13 06:33:41;;;;;;;;;32.67;29.33;;;;;24.84;62.10;100775.28;5092645;27;45451;-51
2023/06/13 06:36:07;;;;;;;;;30.33;27.67;;;;;25.38;61.50;100776.59;5087373;27;45462;-54
2023/06/13 06:38:32;;;;;;;;;31.33;28.67;;;;;26.54;60.63;100777.72;5090098;27;71426;-55
2023/06/13 06:40:57;;;;;;;;;25.00;23.00;;;;;27.82;57.60;100772.34;5087230;27;47472;-54
2023/06/13 06:43:23;;;;;;;;;29.00;28.00;;;;;29.05;54.94;100760.53;5083041;27;45723;-52
2023/06/13 06:45:48;;;;;;;;;26.33;26.33;;;;;30.18;51.85;100775.88;5086853;27;45466;-53
2023/06/13 06:48:14;;;;;;;;;28.33;26.67;;;;;31.26;50.57;100774.88;5092941;27;46333;-54
2023/06/13 06:50:39;;;;;;;;;34.00;29.00;;;;;32.19;49.76;100774.78;5082283;27;60713;-52
2023/06/13 06:53:04;;;;;;;;;27.67;27.33;;;;;32.96;47.37;100781.00;5086511;27;45565;-55
2023/06/13 06:55:30;;;;;;;;;28.00;23.67;;;;;33.66;46.06;100770.75;5084102;27;45559;-54
2023/06/13 06:57:55;;;;;;;;;28.00;21.33;;;;;34.21;44.65;100764.31;5086820;27;45461;-54
2023/06/13 07:00:22;;;;;;;;;24.33;22.00;;;;;34.84;43.32;100767.59;5088072;27;45513;-54
2023/06/13 07:02:47;;;;;;;;;24.67;24.67;;;;;35.56;40.57;100763.69;5082706;27;45563;-55
2023/06/13 07:05:15;;;;;;;;;25.33;23.67;;;;;36.14;40.64;100766.53;5089737;27;45447;-52
2023/06/13 07:07:42;;;;;;;;;24.33;20.00;;;;;36.56;38.91;100770.91;5082259;27;45825;-52
2023/06/13 07:10:07;;;;;;;;;21.33;19.00;;;;;37.07;37.92;100776.44;5081517;27;45429;-52
2023/06/13 07:12:34;;;;;;;;;18.00;18.00;;;;;37.62;35.04;100771.09;5079060;27;45345;-50
2023/06/13 07:14:59;;;;;;;;;20.00;19.00;;;;;37.80;33.99;100767.19;5078355;27;46318;-59
2023/06/13 07:17:25;;;;;;;;;17.67;16.67;;;;;38.16;34.70;100765.63;5077905;27;45532;-59
2023/06/13 07:19:51;;;;;;;;;17.00;15.67;;;;;38.52;32.02;100768.72;5081149;27;45407;-60
2023/06/13 07:22:16;;;;;;;;;16.00;16.00;;;;;38.98;32.01;100779.41;5079989;27;45598;-59
2023/06/13 07:24:41;;;;;;;;;14.00;14.00;;;;;39.27;30.92;100780.97;5090309;27;66820;-59
2023/06/13 07:27:07;;;;;;;;;15.00;15.00;;;;;39.72;31.02;100784.28;5107399;27;45451;-59
2023/06/13 07:29:33;;;;;;;;;18.33;16.33;;;;;40.12;28.88;100782.75;5081978;27;45598;-59
2023/06/13 07:31:59;;;;;;;;;17.33;15.33;;;;;40.45;29.25;100786.94;5086718;27;45456;-60
2023/06/13 07:34:25;;;;;;;;;16.67;15.00;;;;;39.89;28.61;100776.53;5084067;27;46163;-60
2023/06/13 07:36:50;;;;;;;;;16.33;15.00;;;;;38.78;28.95;100774.53;5099387;27;45507;-60
2023/06/13 07:39:16;;;;;;;;;15.00;15.00;;;;;38.31;29.13;100789.09;5093401;27;50459;-60
2023/06/13 07:41:44;;;;;;;;;16.67;16.00;;;;;37.16;29.98;100785.16;5091716;27;45565;-60
2023/06/13 07:44:09;;;;;;;;;14.67;14.67;;;;;38.02;30.03;100776.28;5093515;27;48094;-60
2023/06/13 07:46:34;;;;;;;;;17.33;15.33;;;;;39.88;29.85;100785.97;5079771;27;45325;-60
2023/06/13 07:49:00;;;;;;;;;16.00;16.00;;;;;41.59;25.89;100782.06;5090202;27;62295;-60
2023/06/13 07:51:26;;;;;;;;;20.00;16.00;;;;;41.85;24.22;100781.94;5079004;27;45659;-60
2023/06/13 07:53:51;;;;;;;;;16.33;15.00;;;;;41.88;25.65;100778.59;5088335;27;46979;-61
2023/06/13 07:56:16;;;;;;;;;17.00;15.33;;;;;42.86;23.88;100768.66;5086067;27;57676;-60
2023/06/13 07:58:42;;;;;;;;;17.00;15.00;;;;;44.03;23.70;100773.09;5083205;27;63884;-61
2023/06/13 08:01:07;;;;;;;;;18.33;15.00;;;;;45.00;23.10;100765.03;5085631;27;45397;-60
2023/06/13 08:03:34;;;;;;;;;15.67;15.33;;;;;45.93;22.73;100773.53;5080179;27;50806;-60
2023/06/13 08:06:00;;;;;;;;;12.75;12.75;;;;;46.81;18.54;100770.22;5077647;27;45268;-61
2023/06/13 08:08:25;;;;;;;;;14.67;14.67;;;;;47.39;20.85;100773.06;5075263;27;45317;-61
2023/06/13 08:10:51;;;;;;;;;13.67;11.33;;;;;47.86;19.98;100773.38;5093554;27;45595;-61
2023/06/13 08:13:16;;;;;;;;;16.33;16.00;;;;;48.48;18.83;100774.16;5077817;27;45334;-61
2023/06/13 08:15:42;;;;;;;;;15.67;15.00;;;;;48.91;18.35;100780.88;5083318;27;45626;-61
2023/06/13 08:18:07;;;;;;;;;14.67;14.00;;;;;49.07;17.71;100769.03;5077467;27;47129;-61
2023/06/13 08:20:32;;;;;;;;;13.00;13.00;;;;;49.13;17.75;100773.31;5078130;27;45561;-61
2023/06/13 08:22:59;;;;;;;;;17.00;16.00;;;;;48.98;18.05;100771.91;5081227;27;56348;-64
2023/06/13 08:25:24;;;;;;;;;14.00;14.00;;;;;48.84;16.50;100772.06;5079058;27;45354;-63
2023/06/13 08:27:51;;;;;;;;;15.67;15.00;;;;;48.86;17.65;100775.41;5077462;27;45540;-64
2023/06/13 08:30:17;;;;;;;;;13.67;13.00;;;;;48.79;17.41;100770.28;5077940;27;45294;-64
2023/06/13 08:32:42;;;;;;;;;17.33;15.67;;;;;48.71;17.63;100764.66;5083082;27;45566;-62
2023/06/13 08:35:08;;;;;;;;;12.00;12.00;;;;;48.95;17.25;100766.94;5073648;27;45819;-62
2023/06/13 08:37:33;;;;;;;;;15.67;15.33;;;;;49.17;17.46;100765.84;5081585;27;45488;-63
2023/06/13 08:39:59;;;;;;;;;16.33;14.67;;;;;49.29;16.84;100763.13;5079349;27;45963;-62
2023/06/13 08:42:25;;;;;;;;;16.33;15.67;;;;;49.74;17.36;100763.66;5093092;27;46038;-62
2023/06/13 08:44:51;;;;;;;;;16.67;15.00;;;;;50.25;16.38;100755.06;5093896;27;48476;-62
2023/06/13 08:47:18;;;;;;;;;16.00;16.00;;;;;50.13;14.28;100756.72;5088515;27;64505;-62
2023/06/13 08:49:45;;;;;;;;;14.00;14.00;;;;;49.90;16.48;100753.41;5084329;27;45259;-62
2023/06/13 08:52:13;;;;;;;;;18.67;15.67;;;;;49.87;16.30;100751.25;5080271;27;45674;-62
2023/06/13 08:54:42;;;;;;;;;16.00;14.00;;;;;50.34;15.78;100755.81;5085263;27;45441;-63
2023/06/13 08:57:09;;;;;;;;;18.67;17.33;;;;;50.58;15.24;100751.44;5080766;27;45557;-62
2023/06/13 08:59:36;;;;;;;;;16.67;15.00;;;;;50.69;14.54;100752.59;5079481;27;45727;-62
2023/06/13 09:02:03;;;;;;;;;15.33;14.33;;;;;50.91;14.54;100753.38;5082728;27;46303;-63
2023/06/13 09:04:31;;;;;;;;;15.00;15.00;;;;;51.25;14.09;100745.59;5080995;27;45465;-62
2023/06/13 09:06:57;;;;;;;;;15.00;14.67;;;;;51.24;14.55;100743.94;5095965;27;45709;-62
2023/06/13 09:09:24;;;;;;;;;14.00;14.00;;;;;51.33;14.60;100746.66;5088694;27;45385;-62
2023/06/13 09:11:50;;;;;;;;;15.67;15.67;;;;;51.22;13.49;100746.31;5087336;27;46263;-62
2023/06/13 09:14:17;;;;;;;;;15.33;14.00;;;;;51.14;14.42;100748.09;5086392;27;45461;-61
2023/06/13 09:16:43;;;;;;;;;14.00;14.00;;;;;51.21;13.76;100758.81;5091252;27;45452;-62
2023/06/13 09:19:09;;;;;;;;;17.67;16.00;;;;;51.38;13.77;100752.88;5082347;27;45263;-62
2023/06/13 09:21:36;;;;;;;;;15.00;15.00;;;;;51.84;14.46;100747.03;5090240;27;45401;-62
2023/06/13 09:24:02;;;;;;;;;14.00;13.00;;;;;52.06;12.40;100751.31;5085000;27;45391;-59
2023/06/13 09:26:28;;;;;;;;;11.33;11.33;;;;;51.84;13.29;100754.69;5095385;27;45171;-57
2023/06/13 09:28:54;;;;;;;;;17.00;16.33;;;;;51.48;13.45;100743.09;5088574;27;60574;-63
2023/06/13 09:31:20;;;;;;;;;17.33;14.67;;;;;51.49;13.26;100755.25;5092981;27;46254;-63
2023/06/13 09:33:45;;;;;;;;;12.00;11.67;;;;;51.56;12.82;100756.28;5084538;27;45519;-62
2023/06/13 09:36:11;;;;;;;;;15.33;13.33;;;;;51.95;12.77;100747.34;5099991;27;45477;-63
2023/06/13 09:38:40;;;;;;;;;15.33;13.67;;;;;52.00;12.16;100746.25;5083781;27;50980;-63
2023/06/13 09:41:08;;;;;;;;;15.33;15.33;;;;;52.07;12.25;100746.47;5087017;27;47047;-63
2023/06/13 09:43:33;;;;;;;;;14.67;14.00;;;;;51.66;11.91;100742.81;5089646;27;45442;-63
2023/06/13 09:46:00;;;;;;;;;17.33;14.33;;;;;51.49;12.37;100753.25;5079644;27;45622;-62
2023/06/13 09:48:25;;;;;;;;;15.33;14.00;;;;;51.38;11.88;100752.88;5081201;27;45492;-62
2023/06/13 09:50:51;;;;;;;;;14.00;14.00;;;;;51.45;11.01;100747.47;5088314;27;46142;-59
2023/06/13 09:53:17;;;;;;;;;13.67;13.67;;;;;51.31;11.37;100749.84;5080199;27;45429;-63
2023/06/13 09:55:43;;;;;;;;;15.33;15.33;;;;;51.68;10.93;100738.44;5079007;27;65766;-60
2023/06/13 09:58:08;;;;;;;;;15.00;14.00;;;;;52.18;11.15;100741.94;5095761;27;45609;-62
2023/06/13 10:00:34;;;;;;;;;15.00;13.33;;;;;53.57;11.51;100739.34;5093601;27;47311;-63
2023/06/13 10:02:59;;;;;;;;;13.00;13.00;;;;;55.35;8.87;100749.88;5079013;27;45465;-60
2023/06/13 10:05:25;;;;;;;;;13.33;13.33;;;;;56.50;9.22;100753.34;5080287;27;45382;-61
2023/06/13 10:07:55;;;;;;;;;12.33;12.33;;;;;57.12;8.69;100760.38;5080215;27;45717;-61
2023/06/13 10:10:20;;;;;;;;;13.00;13.00;;;;;56.32;7.04;100756.81;5083319;27;45704;-62
2023/06/13 10:12:49;;;;;;;;;15.33;13.67;;;;;56.71;8.83;100746.22;5084557;27;45566;-63
2023/06/13 10:15:23;;;;;;;;;14.00;13.00;;;;;56.16;8.32;100744.84;5086780;27;45520;-58
2023/06/13 10:17:50;;;;;;;;;13.33;12.67;;;;;56.55;7.17;100741.56;5095901;27;45461;-59
2023/06/13 10:20:17;;;;;;;;;15.00;14.00;;;;;57.15;8.88;100742.47;5095076;27;47624;-61
2023/06/13 10:22:43;;;;;;;;;12.00;12.00;;;;;57.66;5.87;100760.72;5080912;27;45682;-57
2023/06/13 10:25:11;;;;;;;;;15.00;15.00;;;;;57.73;8.15;100754.19;5090534;27;45441;-59
2023/06/13 10:27:39;;;;;;;;;14.00;13.67;;;;;58.24;7.58;100758.84;5094827;27;45482;-58
2023/06/13 10:30:14;;;;;;;;;14.67;14.00;;;;;58.84;7.20;100759.28;5091439;27;46931;-59
2023/06/13 10:33:10;;;;;;;;;13.00;13.00;;;;;59.32;7.05;100752.28;5091057;27;45519;-60
2023/06/13 10:36:02;;;;;;;;;14.00;14.00;;;;;59.85;7.36;100753.31;5086918;27;45341;-60
2023/06/13 10:39:09;;;;;;;;;14.67;14.33;;;;;59.53;6.40;100747.72;5083196;27;45468;-60
2023/06/13 10:41:43;;;;;;;;;17.00;16.33;;;;;58.64;7.00;100755.22;5090385;27;45433;-62
2023/06/13 10:44:12;;;;;;;;;15.00;15.00;;;;;57.80;7.31;100740.75;5108138;27;45562;-59
2023/06/13 10:46:38;;;;;;;;;13.67;12.33;;;;;56.96;7.56;100737.81;5082664;27;45333;-62
2023/06/13 10:49:03;;;;;;;;;14.67;14.67;;;;;56.41;7.26;100742.25;5104544;27;67203;-58
2023/06/13 10:51:30;;;;;;;;;13.00;13.00;;;;;56.00;5.99;100748.72;5078517;27;56582;-61
2023/06/13 10:54:01;;;;;;;;;17.00;16.00;;;;;55.65;7.84;100738.53;5104402;27;45329;-58
2023/06/13 10:56:31;;;;;;;;;14.00;13.00;;;;;55.82;7.53;100731.44;5082410;27;45333;-61
2023/06/13 10:59:02;;;;;;;;;14.00;14.00;;;;;55.63;7.58;100737.28;5094710;27;45519;-60
2023/06/13 11:01:32;;;;;;;;;17.00;16.00;;;;;55.61;7.75;100726.25;5081674;27;46367;-60
2023/06/13 11:04:20;;;;;;;;;13.33;13.33;;;;;55.55;7.74;100732.69;5079831;27;45603;-62
2023/06/13 11:06:52;;;;;;;;;12.67;12.33;;;;;55.82;8.17;100730.59;5090791;27;45491;-59
2023/06/13 11:09:26;;;;;;;;;12.33;11.33;;;;;55.83;7.25;100729.38;5074011;27;45634;-61
2023/06/13 11:11:57;;;;;;;;;13.00;12.00;;;;;55.91;8.60;100730.28;5065902;27;48223;-59